sensor_id;sensor_type;location;lat;lon;timestamp;P1;durP1;ratioP1;P2;durP2;ratioP2
63189;SDS011;49286;44.460;26.114;2022-10-31T00:14:18;36.60;;;17.95;;
63189;SDS011;49286;44.460;26.114;2022-10-31T00:23:03;25.98;;;18.42;;
63189;SDS011;49286;44.460;26.114;2022-10-31T00:28:51;26.48;;;17.75;;
63189;SDS011;49286;44.460;26.114;2022-10-31T00:34:39;26.00;;;17.60;;
63189;SDS011;49286;44.460;26.114;2022-10-31T00:40:26;25.85;;;18.27;;
63189;SDS011;49286;44.460;26.114;2022-10-31T00:46:13;31.15;;;17.17;;
63189;SDS011;49286;44.460;26.114;2022-10-31T00:52:03;39.72;;;33.55;;
63189;SDS011;49286;44.460;26.114;2022-10-31T00:54:30;72.80;;;58.85;;
63189;SDS011;49286;44.460;26.114;2022-10-31T01:02:49;133.82;;;103.00;;
63189;SDS011;49286;44.460;26.114;2022-10-31T01:05:14;110.70;;;86.88;;
63189;SDS011;49286;44.460;26.114;2022-10-31T01:07:40;99.88;;;72.55;;
63189;SDS011;49286;44.460;26.114;2022-10-31T01:13:28;70.38;;;48.22;;
63189;SDS011;49286;44.460;26.114;2022-10-31T01:19:15;62.83;;;43.38;;
63189;SDS011;49286;44.460;26.114;2022-10-31T01:25:03;39.22;;;24.45;;
63189;SDS011;49286;44.460;26.114;2022-10-31T01:30:50;31.02;;;19.13;;
63189;SDS011;49286;44.460;26.114;2022-10-31T01:36:18;23.80;;;16.35;;
63189;SDS011;49286;44.460;26.114;2022-10-31T01:42:14;29.33;;;17.40;;
63189;SDS011;49286;44.460;26.114;2022-10-31T01:48:05;28.42;;;16.17;;
63189;SDS011;49286;44.460;26.114;2022-10-31T01:53:58;24.00;;;15.18;;
63189;SDS011;49286;44.460;26.114;2022-10-31T01:59:51;21.77;;;15.88;;
63189;SDS011;49286;44.460;26.114;2022-10-31T02:12:21;22.00;;;16.70;;
63189;SDS011;49286;44.460;26.114;2022-10-31T02:18:08;29.58;;;17.42;;
63189;SDS011;49286;44.460;26.114;2022-10-31T02:30:14;25.05;;;15.85;;
63189;SDS011;49286;44.460;26.114;2022-10-31T02:35:54;28.25;;;17.23;;
63189;SDS011;49286;44.460;26.114;2022-10-31T02:48:10;23.48;;;16.50;;
63189;SDS011;49286;44.460;26.114;2022-10-31T02:54:15;31.55;;;15.93;;
63189;SDS011;49286;44.460;26.114;2022-10-31T03:00:09;26.25;;;15.75;;
63189;SDS011;49286;44.460;26.114;2022-10-31T03:14:17;30.88;;;15.95;;
63189;SDS011;49286;44.460;26.114;2022-10-31T03:16:50;21.95;;;13.90;;
63189;SDS011;49286;44.460;26.114;2022-10-31T03:22:39;26.42;;;15.50;;
63189;SDS011;49286;44.460;26.114;2022-10-31T03:28:30;24.15;;;14.63;;
63189;SDS011;49286;44.460;26.114;2022-10-31T03:31:01;24.35;;;15.27;;
63189;SDS011;49286;44.460;26.114;2022-10-31T03:33:30;22.27;;;15.32;;
63189;SDS011;49286;44.460;26.114;2022-10-31T03:35:59;28.40;;;15.75;;
63189;SDS011;49286;44.460;26.114;2022-10-31T03:38:29;31.08;;;16.52;;
63189;SDS011;49286;44.460;26.114;2022-10-31T03:44:19;27.45;;;15.00;;
63189;SDS011;49286;44.460;26.114;2022-10-31T03:46:47;21.45;;;14.10;;
63189;SDS011;49286;44.460;26.114;2022-10-31T03:49:13;25.23;;;16.95;;
63189;SDS011;49286;44.460;26.114;2022-10-31T04:00:03;21.33;;;16.13;;
63189;SDS011;49286;44.460;26.114;2022-10-31T04:02:43;33.00;;;14.68;;
63189;SDS011;49286;44.460;26.114;2022-10-31T04:05:14;23.65;;;14.77;;
63189;SDS011;49286;44.460;26.114;2022-10-31T04:07:43;28.45;;;17.85;;
63189;SDS011;49286;44.460;26.114;2022-10-31T04:10:12;22.92;;;15.60;;
63189;SDS011;49286;44.460;26.114;2022-10-31T04:12:40;32.30;;;17.85;;
63189;SDS011;49286;44.460;26.114;2022-10-31T04:15:08;23.52;;;15.43;;
63189;SDS011;49286;44.460;26.114;2022-10-31T04:17:36;26.25;;;15.60;;
63189;SDS011;49286;44.460;26.114;2022-10-31T04:20:05;33.75;;;16.08;;
63189;SDS011;49286;44.460;26.114;2022-10-31T04:22:31;29.98;;;16.83;;
63189;SDS011;49286;44.460;26.114;2022-10-31T04:24:57;22.10;;;14.07;;
63189;SDS011;49286;44.460;26.114;2022-10-31T04:27:28;27.60;;;14.70;;
63189;SDS011;49286;44.460;26.114;2022-10-31T04:29:53;31.80;;;16.73;;
63189;SDS011;49286;44.460;26.114;2022-10-31T04:32:19;32.92;;;18.40;;
63189;SDS011;49286;44.460;26.114;2022-10-31T04:34:44;29.38;;;17.92;;
63189;SDS011;49286;44.460;26.114;2022-10-31T04:37:10;25.15;;;16.02;;
63189;SDS011;49286;44.460;26.114;2022-10-31T04:39:35;30.38;;;16.52;;
63189;SDS011;49286;44.460;26.114;2022-10-31T04:42:00;28.20;;;16.95;;
63189;SDS011;49286;44.460;26.114;2022-10-31T04:44:33;25.48;;;16.90;;
63189;SDS011;49286;44.460;26.114;2022-10-31T04:47:00;25.52;;;16.20;;
63189;SDS011;49286;44.460;26.114;2022-10-31T04:49:26;36.70;;;16.63;;
63189;SDS011;49286;44.460;26.114;2022-10-31T04:52:00;28.85;;;16.58;;
63189;SDS011;49286;44.460;26.114;2022-10-31T04:54:26;23.02;;;17.00;;
63189;SDS011;49286;44.460;26.114;2022-10-31T04:56:51;25.20;;;15.68;;
63189;SDS011;49286;44.460;26.114;2022-10-31T04:59:17;35.58;;;17.90;;
63189;SDS011;49286;44.460;26.114;2022-10-31T05:01:42;29.95;;;17.13;;
63189;SDS011;49286;44.460;26.114;2022-10-31T05:04:07;28.92;;;17.75;;
63189;SDS011;49286;44.460;26.114;2022-10-31T05:06:33;27.85;;;15.68;;
63189;SDS011;49286;44.460;26.114;2022-10-31T05:08:58;41.78;;;19.52;;
63189;SDS011;49286;44.460;26.114;2022-10-31T05:11:24;26.95;;;17.92;;
63189;SDS011;49286;44.460;26.114;2022-10-31T05:13:49;30.88;;;18.15;;
63189;SDS011;49286;44.460;26.114;2022-10-31T05:16:15;30.85;;;18.13;;
63189;SDS011;49286;44.460;26.114;2022-10-31T05:18:40;31.02;;;19.92;;
63189;SDS011;49286;44.460;26.114;2022-10-31T05:21:06;29.10;;;18.77;;
63189;SDS011;49286;44.460;26.114;2022-10-31T05:23:31;33.03;;;21.98;;
63189;SDS011;49286;44.460;26.114;2022-10-31T05:25:57;41.70;;;21.63;;
63189;SDS011;49286;44.460;26.114;2022-10-31T05:28:22;39.00;;;23.35;;
63189;SDS011;49286;44.460;26.114;2022-10-31T05:30:47;33.13;;;20.38;;
63189;SDS011;49286;44.460;26.114;2022-10-31T05:33:14;32.53;;;19.52;;
63189;SDS011;49286;44.460;26.114;2022-10-31T05:35:40;42.95;;;21.40;;
63189;SDS011;49286;44.460;26.114;2022-10-31T05:38:05;47.25;;;27.33;;
63189;SDS011;49286;44.460;26.114;2022-10-31T05:40:30;49.65;;;30.92;;
63189;SDS011;49286;44.460;26.114;2022-10-31T05:43:09;55.90;;;34.85;;
63189;SDS011;49286;44.460;26.114;2022-10-31T05:45:34;66.57;;;39.83;;
63189;SDS011;49286;44.460;26.114;2022-10-31T05:48:00;60.67;;;43.53;;
63189;SDS011;49286;44.460;26.114;2022-10-31T05:50:27;69.80;;;43.40;;
63189;SDS011;49286;44.460;26.114;2022-10-31T05:52:57;54.47;;;39.33;;
63189;SDS011;49286;44.460;26.114;2022-10-31T05:55:24;47.92;;;34.55;;
63189;SDS011;49286;44.460;26.114;2022-10-31T05:57:51;61.83;;;32.78;;
63189;SDS011;49286;44.460;26.114;2022-10-31T06:00:17;42.88;;;32.95;;
63189;SDS011;49286;44.460;26.114;2022-10-31T06:02:44;58.08;;;35.55;;
63189;SDS011;49286;44.460;26.114;2022-10-31T06:05:12;51.72;;;34.40;;
63189;SDS011;49286;44.460;26.114;2022-10-31T06:07:46;51.58;;;34.75;;
63189;SDS011;49286;44.460;26.114;2022-10-31T06:10:12;46.22;;;32.63;;
63189;SDS011;49286;44.460;26.114;2022-10-31T06:19:11;41.67;;;26.52;;
63189;SDS011;49286;44.460;26.114;2022-10-31T06:21:37;43.88;;;20.33;;
63189;SDS011;49286;44.460;26.114;2022-10-31T06:27:24;33.63;;;20.55;;
63189;SDS011;49286;44.460;26.114;2022-10-31T06:33:12;35.22;;;18.17;;
63189;SDS011;49286;44.460;26.114;2022-10-31T06:35:37;41.75;;;16.90;;
63189;SDS011;49286;44.460;26.114;2022-10-31T06:44:46;27.10;;;16.45;;
63189;SDS011;49286;44.460;26.114;2022-10-31T06:50:33;22.35;;;14.27;;
63189;SDS011;49286;44.460;26.114;2022-10-31T06:55:42;28.42;;;14.48;;
63189;SDS011;49286;44.460;26.114;2022-10-31T06:58:08;18.85;;;12.73;;
63189;SDS011;49286;44.460;26.114;2022-10-31T07:00:34;27.80;;;14.05;;
63189;SDS011;49286;44.460;26.114;2022-10-31T07:03:02;17.70;;;12.95;;
63189;SDS011;49286;44.460;26.114;2022-10-31T07:05:29;15.75;;;11.98;;
63189;SDS011;49286;44.460;26.114;2022-10-31T07:07:55;17.20;;;11.85;;
63189;SDS011;49286;44.460;26.114;2022-10-31T07:10:26;13.68;;;7.90;;
63189;SDS011;49286;44.460;26.114;2022-10-31T07:12:56;16.63;;;8.38;;
63189;SDS011;49286;44.460;26.114;2022-10-31T07:15:26;12.80;;;8.43;;
63189;SDS011;49286;44.460;26.114;2022-10-31T07:17:53;17.98;;;8.30;;
63189;SDS011;49286;44.460;26.114;2022-10-31T07:20:31;12.00;;;8.50;;
63189;SDS011;49286;44.460;26.114;2022-10-31T07:22:57;22.27;;;8.73;;
63189;SDS011;49286;44.460;26.114;2022-10-31T07:28:34;13.38;;;7.32;;
63189;SDS011;49286;44.460;26.114;2022-10-31T07:31:00;18.38;;;8.77;;
63189;SDS011;49286;44.460;26.114;2022-10-31T07:33:26;17.02;;;8.10;;
63189;SDS011;49286;44.460;26.114;2022-10-31T07:35:53;16.08;;;8.95;;
63189;SDS011;49286;44.460;26.114;2022-10-31T07:38:19;15.75;;;7.63;;
63189;SDS011;49286;44.460;26.114;2022-10-31T07:40:48;10.55;;;7.00;;
63189;SDS011;49286;44.460;26.114;2022-10-31T07:43:16;17.25;;;8.43;;
63189;SDS011;49286;44.460;26.114;2022-10-31T07:45:53;20.83;;;7.40;;
63189;SDS011;49286;44.460;26.114;2022-10-31T07:48:19;17.85;;;8.93;;
63189;SDS011;49286;44.460;26.114;2022-10-31T07:50:45;20.10;;;9.82;;
63189;SDS011;49286;44.460;26.114;2022-10-31T07:53:11;15.63;;;8.70;;
63189;SDS011;49286;44.460;26.114;2022-10-31T07:55:38;26.80;;;9.55;;
63189;SDS011;49286;44.460;26.114;2022-10-31T07:58:05;16.85;;;6.45;;
63189;SDS011;49286;44.460;26.114;2022-10-31T08:00:32;11.23;;;6.57;;
63189;SDS011;49286;44.460;26.114;2022-10-31T08:03:03;12.35;;;6.43;;
63189;SDS011;49286;44.460;26.114;2022-10-31T08:05:30;16.52;;;6.30;;
63189;SDS011;49286;44.460;26.114;2022-10-31T08:07:56;10.07;;;6.20;;
63189;SDS011;49286;44.460;26.114;2022-10-31T08:10:23;14.20;;;7.63;;
63189;SDS011;49286;44.460;26.114;2022-10-31T08:15:49;13.07;;;6.80;;
63189;SDS011;49286;44.460;26.114;2022-10-31T08:18:16;11.30;;;6.35;;
63189;SDS011;49286;44.460;26.114;2022-10-31T08:20:42;13.45;;;6.65;;
63189;SDS011;49286;44.460;26.114;2022-10-31T08:25:57;16.83;;;8.00;;
63189;SDS011;49286;44.460;26.114;2022-10-31T08:28:25;15.05;;;7.70;;
63189;SDS011;49286;44.460;26.114;2022-10-31T08:30:51;16.70;;;7.60;;
63189;SDS011;49286;44.460;26.114;2022-10-31T08:33:17;11.38;;;6.03;;
63189;SDS011;49286;44.460;26.114;2022-10-31T08:35:43;12.68;;;7.70;;
63189;SDS011;49286;44.460;26.114;2022-10-31T08:38:10;14.98;;;7.53;;
63189;SDS011;49286;44.460;26.114;2022-10-31T08:40:36;12.30;;;7.95;;
63189;SDS011;49286;44.460;26.114;2022-10-31T08:43:04;17.33;;;8.02;;
63189;SDS011;49286;44.460;26.114;2022-10-31T08:45:31;13.77;;;7.45;;
63189;SDS011;49286;44.460;26.114;2022-10-31T08:48:03;18.08;;;8.80;;
63189;SDS011;49286;44.460;26.114;2022-10-31T08:50:31;18.07;;;9.33;;
63189;SDS011;49286;44.460;26.114;2022-10-31T08:53:05;17.88;;;7.55;;
63189;SDS011;49286;44.460;26.114;2022-10-31T08:55:41;19.37;;;8.27;;
63189;SDS011;49286;44.460;26.114;2022-10-31T08:58:12;16.42;;;10.52;;
63189;SDS011;49286;44.460;26.114;2022-10-31T09:00:39;16.90;;;9.10;;
63189;SDS011;49286;44.460;26.114;2022-10-31T09:09:01;22.90;;;9.43;;
63189;SDS011;49286;44.460;26.114;2022-10-31T09:11:27;21.67;;;8.48;;
63189;SDS011;49286;44.460;26.114;2022-10-31T09:13:55;14.75;;;8.80;;
63189;SDS011;49286;44.460;26.114;2022-10-31T09:16:32;24.95;;;9.10;;
63189;SDS011;49286;44.460;26.114;2022-10-31T09:18:57;15.57;;;9.20;;
63189;SDS011;49286;44.460;26.114;2022-10-31T09:21:22;16.40;;;9.32;;
63189;SDS011;49286;44.460;26.114;2022-10-31T09:24:03;21.05;;;9.80;;
63189;SDS011;49286;44.460;26.114;2022-10-31T09:26:32;15.35;;;9.13;;
63189;SDS011;49286;44.460;26.114;2022-10-31T09:29:05;15.15;;;7.97;;
63189;SDS011;49286;44.460;26.114;2022-10-31T09:31:30;16.75;;;9.25;;
63189;SDS011;49286;44.460;26.114;2022-10-31T09:33:56;21.15;;;9.10;;
63189;SDS011;49286;44.460;26.114;2022-10-31T09:36:21;20.20;;;9.52;;
63189;SDS011;49286;44.460;26.114;2022-10-31T09:38:46;20.35;;;8.52;;
63189;SDS011;49286;44.460;26.114;2022-10-31T09:43:51;18.55;;;9.82;;
63189;SDS011;49286;44.460;26.114;2022-10-31T09:52:35;17.48;;;12.38;;
63189;SDS011;49286;44.460;26.114;2022-10-31T09:55:16;17.80;;;10.15;;
63189;SDS011;49286;44.460;26.114;2022-10-31T09:57:44;20.77;;;10.15;;
63189;SDS011;49286;44.460;26.114;2022-10-31T10:00:18;20.25;;;10.00;;
63189;SDS011;49286;44.460;26.114;2022-10-31T10:03:05;33.60;;;12.52;;
63189;SDS011;49286;44.460;26.114;2022-10-31T10:05:43;26.95;;;12.32;;
63189;SDS011;49286;44.460;26.114;2022-10-31T10:08:18;29.35;;;9.55;;
63189;SDS011;49286;44.460;26.114;2022-10-31T10:31:06;15.32;;;10.10;;
63189;SDS011;49286;44.460;26.114;2022-10-31T10:33:45;14.93;;;9.65;;
63189;SDS011;49286;44.460;26.114;2022-10-31T10:36:16;14.90;;;9.55;;
63189;SDS011;49286;44.460;26.114;2022-10-31T10:41:14;15.02;;;9.13;;
63189;SDS011;49286;44.460;26.114;2022-10-31T10:55:45;15.40;;;9.07;;
63189;SDS011;49286;44.460;26.114;2022-10-31T10:58:40;18.08;;;9.38;;
63189;SDS011;49286;44.460;26.114;2022-10-31T11:01:11;13.90;;;10.35;;
63189;SDS011;49286;44.460;26.114;2022-10-31T11:03:38;15.88;;;8.75;;
63189;SDS011;49286;44.460;26.114;2022-10-31T11:09:07;18.92;;;10.90;;
63189;SDS011;49286;44.460;26.114;2022-10-31T11:11:33;18.70;;;9.70;;
63189;SDS011;49286;44.460;26.114;2022-10-31T11:14:00;17.20;;;10.48;;
63189;SDS011;49286;44.460;26.114;2022-10-31T11:16:32;21.45;;;9.90;;
63189;SDS011;49286;44.460;26.114;2022-10-31T11:21:38;26.77;;;10.88;;
63189;SDS011;49286;44.460;26.114;2022-10-31T11:26:29;26.27;;;10.82;;
63189;SDS011;49286;44.460;26.114;2022-10-31T11:28:58;20.50;;;9.95;;
63189;SDS011;49286;44.460;26.114;2022-10-31T11:31:24;16.30;;;10.00;;
63189;SDS011;49286;44.460;26.114;2022-10-31T11:33:55;18.90;;;10.80;;
63189;SDS011;49286;44.460;26.114;2022-10-31T11:36:24;16.83;;;9.98;;
63189;SDS011;49286;44.460;26.114;2022-10-31T11:39:04;18.30;;;10.25;;
63189;SDS011;49286;44.460;26.114;2022-10-31T11:41:39;15.70;;;9.38;;
63189;SDS011;49286;44.460;26.114;2022-10-31T11:46:38;19.33;;;9.18;;
63189;SDS011;49286;44.460;26.114;2022-10-31T11:49:10;13.10;;;9.00;;
63189;SDS011;49286;44.460;26.114;2022-10-31T11:51:42;18.30;;;8.98;;
63189;SDS011;49286;44.460;26.114;2022-10-31T11:54:22;23.13;;;8.90;;
63189;SDS011;49286;44.460;26.114;2022-10-31T11:56:50;13.65;;;9.32;;
63189;SDS011;49286;44.460;26.114;2022-10-31T11:59:30;20.67;;;10.70;;
63189;SDS011;49286;44.460;26.114;2022-10-31T12:01:57;20.02;;;10.13;;
63189;SDS011;49286;44.460;26.114;2022-10-31T12:04:29;16.83;;;9.80;;
63189;SDS011;49286;44.460;26.114;2022-10-31T12:06:55;15.40;;;9.77;;
63189;SDS011;49286;44.460;26.114;2022-10-31T12:09:26;11.90;;;9.38;;
63189;SDS011;49286;44.460;26.114;2022-10-31T12:17:06;29.98;;;11.38;;
63189;SDS011;49286;44.460;26.114;2022-10-31T12:19:54;18.33;;;9.70;;
63189;SDS011;49286;44.460;26.114;2022-10-31T12:25:26;13.23;;;8.25;;
63189;SDS011;49286;44.460;26.114;2022-10-31T12:30:50;22.10;;;8.95;;
63189;SDS011;49286;44.460;26.114;2022-10-31T12:36:17;30.90;;;8.45;;
63189;SDS011;49286;44.460;26.114;2022-10-31T12:39:06;15.50;;;7.85;;
63189;SDS011;49286;44.460;26.114;2022-10-31T12:44:55;17.65;;;8.25;;
63189;SDS011;49286;44.460;26.114;2022-10-31T13:07:36;11.25;;;7.78;;
63189;SDS011;49286;44.460;26.114;2022-10-31T13:15:44;20.88;;;8.18;;
63189;SDS011;49286;44.460;26.114;2022-10-31T13:18:15;16.10;;;8.70;;
63189;SDS011;49286;44.460;26.114;2022-10-31T13:20:51;12.32;;;8.25;;
63189;SDS011;49286;44.460;26.114;2022-10-31T13:25:56;14.75;;;8.40;;
63189;SDS011;49286;44.460;26.114;2022-10-31T13:31:27;15.55;;;8.80;;
63189;SDS011;49286;44.460;26.114;2022-10-31T13:33:53;15.95;;;8.32;;
63189;SDS011;49286;44.460;26.114;2022-10-31T13:36:34;15.73;;;9.30;;
63189;SDS011;49286;44.460;26.114;2022-10-31T13:39:14;20.42;;;9.27;;
63189;SDS011;49286;44.460;26.114;2022-10-31T13:44:28;30.95;;;9.52;;
63189;SDS011;49286;44.460;26.114;2022-10-31T13:46:58;14.77;;;8.40;;
63189;SDS011;49286;44.460;26.114;2022-10-31T13:54:35;31.95;;;11.80;;
63189;SDS011;49286;44.460;26.114;2022-10-31T13:57:06;17.98;;;10.00;;
63189;SDS011;49286;44.460;26.114;2022-10-31T13:59:57;21.85;;;9.23;;
63189;SDS011;49286;44.460;26.114;2022-10-31T14:02:26;20.50;;;8.80;;
63189;SDS011;49286;44.460;26.114;2022-10-31T14:05:01;34.65;;;9.38;;
63189;SDS011;49286;44.460;26.114;2022-10-31T14:07:30;19.17;;;9.60;;
63189;SDS011;49286;44.460;26.114;2022-10-31T14:15:23;15.30;;;9.10;;
63189;SDS011;49286;44.460;26.114;2022-10-31T14:17:56;21.05;;;9.68;;
63189;SDS011;49286;44.460;26.114;2022-10-31T14:20:32;18.83;;;10.23;;
63189;SDS011;49286;44.460;26.114;2022-10-31T14:23:50;19.20;;;9.27;;
63189;SDS011;49286;44.460;26.114;2022-10-31T14:29:35;19.08;;;10.10;;
63189;SDS011;49286;44.460;26.114;2022-10-31T14:31:45;15.98;;;9.80;;
63189;SDS011;49286;44.460;26.114;2022-10-31T14:34:33;49.90;;;11.60;;
63189;SDS011;49286;44.460;26.114;2022-10-31T14:51:40;19.00;;;10.48;;
63189;SDS011;49286;44.460;26.114;2022-10-31T14:57:01;26.63;;;11.15;;
63189;SDS011;49286;44.460;26.114;2022-10-31T14:59:31;14.70;;;10.15;;
63189;SDS011;49286;44.460;26.114;2022-10-31T15:02:18;17.77;;;11.40;;
63189;SDS011;49286;44.460;26.114;2022-10-31T15:04:57;19.90;;;11.52;;
63189;SDS011;49286;44.460;26.114;2022-10-31T15:07:24;21.43;;;10.53;;
63189;SDS011;49286;44.460;26.114;2022-10-31T15:10:21;20.40;;;11.05;;
63189;SDS011;49286;44.460;26.114;2022-10-31T15:15:46;33.65;;;13.27;;
63189;SDS011;49286;44.460;26.114;2022-10-31T15:18:26;30.63;;;14.10;;
63189;SDS011;49286;44.460;26.114;2022-10-31T15:20:54;22.05;;;12.00;;
63189;SDS011;49286;44.460;26.114;2022-10-31T15:23:23;30.67;;;16.25;;
63189;SDS011;49286;44.460;26.114;2022-10-31T15:25:51;23.77;;;13.25;;
63189;SDS011;49286;44.460;26.114;2022-10-31T15:28:31;18.58;;;13.18;;
63189;SDS011;49286;44.460;26.114;2022-10-31T15:30:58;21.00;;;13.20;;
63189;SDS011;49286;44.460;26.114;2022-10-31T15:50:20;32.35;;;13.65;;
63189;SDS011;49286;44.460;26.114;2022-10-31T15:53:17;45.25;;;15.65;;
63189;SDS011;49286;44.460;26.114;2022-10-31T15:56:06;39.83;;;15.60;;
63189;SDS011;49286;44.460;26.114;2022-10-31T16:01:58;29.52;;;16.83;;
63189;SDS011;49286;44.460;26.114;2022-10-31T16:20:48;38.15;;;17.63;;
63189;SDS011;49286;44.460;26.114;2022-10-31T16:26:36;51.83;;;19.55;;
63189;SDS011;49286;44.460;26.114;2022-10-31T16:45:17;39.45;;;16.50;;
63189;SDS011;49286;44.460;26.114;2022-10-31T17:01:13;44.15;;;18.95;;
63189;SDS011;49286;44.460;26.114;2022-10-31T17:06:45;44.25;;;20.58;;
63189;SDS011;49286;44.460;26.114;2022-10-31T17:09:10;72.75;;;24.05;;
63189;SDS011;49286;44.460;26.114;2022-10-31T17:11:38;58.17;;;21.65;;
63189;SDS011;49286;44.460;26.114;2022-10-31T17:14:10;41.13;;;20.48;;
63189;SDS011;49286;44.460;26.114;2022-10-31T17:16:36;57.20;;;19.45;;
63189;SDS011;49286;44.460;26.114;2022-10-31T17:19:02;51.67;;;21.50;;
63189;SDS011;49286;44.460;26.114;2022-10-31T17:21:27;41.17;;;22.02;;
63189;SDS011;49286;44.460;26.114;2022-10-31T17:23:53;39.83;;;20.60;;
63189;SDS011;49286;44.460;26.114;2022-10-31T17:26:19;37.97;;;19.63;;
63189;SDS011;49286;44.460;26.114;2022-10-31T17:28:44;37.03;;;18.65;;
63189;SDS011;49286;44.460;26.114;2022-10-31T17:31:23;40.92;;;17.70;;
63189;SDS011;49286;44.460;26.114;2022-10-31T17:33:53;36.08;;;19.80;;
63189;SDS011;49286;44.460;26.114;2022-10-31T17:36:20;51.47;;;20.42;;
63189;SDS011;49286;44.460;26.114;2022-10-31T17:38:46;42.30;;;20.77;;
63189;SDS011;49286;44.460;26.114;2022-10-31T17:41:11;46.05;;;20.88;;
63189;SDS011;49286;44.460;26.114;2022-10-31T17:43:37;63.50;;;19.70;;
63189;SDS011;49286;44.460;26.114;2022-10-31T17:46:04;35.78;;;20.67;;
63189;SDS011;49286;44.460;26.114;2022-10-31T17:48:32;40.78;;;22.30;;
63189;SDS011;49286;44.460;26.114;2022-10-31T17:50:59;48.15;;;21.67;;
63189;SDS011;49286;44.460;26.114;2022-10-31T17:53:35;42.20;;;22.73;;
63189;SDS011;49286;44.460;26.114;2022-10-31T17:56:01;64.35;;;22.23;;
63189;SDS011;49286;44.460;26.114;2022-10-31T17:58:28;36.00;;;19.90;;
63189;SDS011;49286;44.460;26.114;2022-10-31T18:03:31;47.15;;;22.45;;
63189;SDS011;49286;44.460;26.114;2022-10-31T18:05:57;40.03;;;23.23;;
63189;SDS011;49286;44.460;26.114;2022-10-31T18:08:27;39.45;;;25.75;;
63189;SDS011;49286;44.460;26.114;2022-10-31T18:10:55;50.92;;;26.05;;
63189;SDS011;49286;44.460;26.114;2022-10-31T18:13:31;56.95;;;27.63;;
63189;SDS011;49286;44.460;26.114;2022-10-31T18:18:22;59.47;;;24.85;;
63189;SDS011;49286;44.460;26.114;2022-10-31T18:20:49;45.50;;;24.30;;
63189;SDS011;49286;44.460;26.114;2022-10-31T18:23:30;55.25;;;25.23;;
63189;SDS011;49286;44.460;26.114;2022-10-31T18:25:56;41.63;;;24.80;;
63189;SDS011;49286;44.460;26.114;2022-10-31T18:30:58;54.08;;;27.13;;
63189;SDS011;49286;44.460;26.114;2022-10-31T18:33:30;55.17;;;27.63;;
63189;SDS011;49286;44.460;26.114;2022-10-31T18:35:56;57.70;;;30.13;;
63189;SDS011;49286;44.460;26.114;2022-10-31T18:38:30;60.63;;;30.08;;
63189;SDS011;49286;44.460;26.114;2022-10-31T18:40:57;56.25;;;30.73;;
63189;SDS011;49286;44.460;26.114;2022-10-31T18:43:22;63.15;;;34.05;;
63189;SDS011;49286;44.460;26.114;2022-10-31T18:45:48;59.05;;;30.90;;
63189;SDS011;49286;44.460;26.114;2022-10-31T18:48:14;55.17;;;34.97;;
63189;SDS011;49286;44.460;26.114;2022-10-31T18:50:40;57.85;;;34.35;;
63189;SDS011;49286;44.460;26.114;2022-10-31T18:53:08;65.10;;;30.85;;
63189;SDS011;49286;44.460;26.114;2022-10-31T18:55:37;54.50;;;30.25;;
63189;SDS011;49286;44.460;26.114;2022-10-31T18:58:12;59.20;;;31.05;;
63189;SDS011;49286;44.460;26.114;2022-10-31T19:00:42;40.90;;;29.10;;
63189;SDS011;49286;44.460;26.114;2022-10-31T19:03:08;62.50;;;31.17;;
63189;SDS011;49286;44.460;26.114;2022-10-31T19:05:34;63.95;;;37.22;;
63189;SDS011;49286;44.460;26.114;2022-10-31T19:07:59;64.80;;;40.65;;
63189;SDS011;49286;44.460;26.114;2022-10-31T19:10:24;79.45;;;42.90;;
63189;SDS011;49286;44.460;26.114;2022-10-31T19:12:50;72.60;;;43.00;;
63189;SDS011;49286;44.460;26.114;2022-10-31T19:15:15;72.40;;;42.33;;
63189;SDS011;49286;44.460;26.114;2022-10-31T19:17:47;79.25;;;47.13;;
63189;SDS011;49286;44.460;26.114;2022-10-31T19:20:13;64.32;;;42.53;;
63189;SDS011;49286;44.460;26.114;2022-10-31T19:22:53;62.33;;;40.15;;
63189;SDS011;49286;44.460;26.114;2022-10-31T19:25:19;61.95;;;36.38;;
63189;SDS011;49286;44.460;26.114;2022-10-31T19:27:44;60.47;;;35.22;;
63189;SDS011;49286;44.460;26.114;2022-10-31T19:30:10;59.90;;;36.20;;
63189;SDS011;49286;44.460;26.114;2022-10-31T19:32:36;66.07;;;39.83;;
63189;SDS011;49286;44.460;26.114;2022-10-31T19:35:02;65.40;;;37.72;;
63189;SDS011;49286;44.460;26.114;2022-10-31T19:37:33;58.53;;;37.85;;
63189;SDS011;49286;44.460;26.114;2022-10-31T19:40:03;75.22;;;42.13;;
63189;SDS011;49286;44.460;26.114;2022-10-31T19:42:30;74.00;;;41.60;;
63189;SDS011;49286;44.460;26.114;2022-10-31T19:44:57;63.50;;;41.83;;
63189;SDS011;49286;44.460;26.114;2022-10-31T19:47:22;77.25;;;48.25;;
63189;SDS011;49286;44.460;26.114;2022-10-31T19:49:48;85.95;;;48.03;;
63189;SDS011;49286;44.460;26.114;2022-10-31T19:52:13;67.82;;;43.92;;
63189;SDS011;49286;44.460;26.114;2022-10-31T19:54:39;79.57;;;52.08;;
63189;SDS011;49286;44.460;26.114;2022-10-31T19:57:04;89.35;;;62.47;;
63189;SDS011;49286;44.460;26.114;2022-10-31T19:59:30;105.03;;;66.45;;
63189;SDS011;49286;44.460;26.114;2022-10-31T20:01:55;117.97;;;75.10;;
63189;SDS011;49286;44.460;26.114;2022-10-31T20:04:20;95.85;;;68.97;;
63189;SDS011;49286;44.460;26.114;2022-10-31T20:06:46;104.35;;;65.07;;
63189;SDS011;49286;44.460;26.114;2022-10-31T20:09:12;94.10;;;65.50;;
63189;SDS011;49286;44.460;26.114;2022-10-31T20:11:38;96.18;;;65.45;;
63189;SDS011;49286;44.460;26.114;2022-10-31T20:14:05;96.57;;;63.25;;
63189;SDS011;49286;44.460;26.114;2022-10-31T20:16:31;115.40;;;64.63;;
63189;SDS011;49286;44.460;26.114;2022-10-31T20:18:57;102.40;;;69.55;;
63189;SDS011;49286;44.460;26.114;2022-10-31T20:21:24;100.13;;;63.53;;
63189;SDS011;49286;44.460;26.114;2022-10-31T20:23:55;91.32;;;58.25;;
63189;SDS011;49286;44.460;26.114;2022-10-31T20:28:50;83.38;;;58.13;;
63189;SDS011;49286;44.460;26.114;2022-10-31T20:31:20;107.43;;;59.60;;
63189;SDS011;49286;44.460;26.114;2022-10-31T20:33:47;90.10;;;54.92;;
63189;SDS011;49286;44.460;26.114;2022-10-31T20:36:13;85.63;;;52.13;;
63189;SDS011;49286;44.460;26.114;2022-10-31T20:38:53;87.97;;;50.35;;
63189;SDS011;49286;44.460;26.114;2022-10-31T20:41:19;97.68;;;56.22;;
63189;SDS011;49286;44.460;26.114;2022-10-31T20:43:45;85.72;;;56.40;;
63189;SDS011;49286;44.460;26.114;2022-10-31T20:46:17;100.30;;;70.18;;
63189;SDS011;49286;44.460;26.114;2022-10-31T20:49:01;83.82;;;49.53;;
63189;SDS011;49286;44.460;26.114;2022-10-31T20:51:27;75.95;;;41.03;;
63189;SDS011;49286;44.460;26.114;2022-10-31T20:53:53;70.93;;;43.50;;
63189;SDS011;49286;44.460;26.114;2022-10-31T20:56:27;65.85;;;39.95;;
63189;SDS011;49286;44.460;26.114;2022-10-31T20:58:53;80.65;;;50.03;;
63189;SDS011;49286;44.460;26.114;2022-10-31T21:01:20;71.43;;;51.28;;
63189;SDS011;49286;44.460;26.114;2022-10-31T21:03:59;89.90;;;53.15;;
63189;SDS011;49286;44.460;26.114;2022-10-31T21:06:24;76.43;;;49.67;;
63189;SDS011;49286;44.460;26.114;2022-10-31T21:08:50;84.25;;;53.63;;
63189;SDS011;49286;44.460;26.114;2022-10-31T21:11:19;79.00;;;53.88;;